KHZE

Mercer County Regional Airport

Hazen, North Dakota, USA
METAR KHZE 121935Z AUTO 20006KT 10SM CLR 04/M02 A2951 RMK AO2 TSNO
Observed Flight Rules
Dec-12 @ 19:35 UTC (13 minutes ago) Visual Flight Rules
Wind Visibility Clouds
200° at 6 knots 10 miles
  • Clear skies
Temperatures Readings
Current 4°C / 39°F
Dewpoint -2°C / 28°F
Humidity 65%
Altimeter 29.51" Hg
Pressure 999 hPa
Elevation 553
METAR KHZE 121935Z AUTO 20006KT 10SM CLR 04/M02 A2951 RMK AO2 TSNO
Observed Flight Rules
Dec-12 @ 19:35 UTC
(13 minutes ago)
VFR
Wind Visibility
200° at 6 knots 10 miles
Clouds
  • Clear skies
Temperature Dewpoint
4°C / 39°F -2°C / 28°F
Humidity Altimeter Pressure
65% 29.51" Hg 999 hPa